.
WxDataArchive / Data Records for 2007-04-13
2007-04-12 April 2007 2007-04-14

Data Records for Friday, 13 April 2007

Time	Temp	Chill	HIndex	Humid	Dewpt	 Wind 	HiWind	WindDir	Rain 	Barom 
-----	----	-----	------	-----	-----	------	------	-------	-----	----- 
00:00	36.9	36.9	36.9	77	30.4	2	6	270	0.00	29.979 
00:05	36.8	36.8	36.8	77	30.3	2	5	248	0.00	29.983 
00:10	36.8	36.8	36.8	77	30.3	2	5	248	0.00	29.984 
00:15	36.8	36.8	36.8	77	30.3	2	6	270	0.00	29.985 
00:20	36.8	36.8	36.8	77	30.3	2	6	248	0.00	29.987 
00:25	36.8	36.8	36.8	77	30.3	3	7	248	0.00	29.990 
00:30	36.8	36.8	36.8	77	30.3	2	5	248	0.00	29.992 
00:35	36.8	36.8	36.8	77	30.3	3	7	248	0.00	29.992 
00:40	36.8	36.8	36.8	77	30.3	2	5	248	0.00	29.996 
00:45	36.8	36.8	36.8	77	30.3	3	10	270	0.00	30.000 
00:50	36.8	36.8	36.8	77	30.3	3	10	248	0.00	30.002 
00:55	36.8	36.8	36.8	77	30.3	3	10	270	0.00	30.002 
01:00	36.8	36.8	36.8	77	30.3	2	6	270	0.00	30.003 
01:05	36.8	36.8	36.8	78	30.6	2	7	270	0.00	30.003 
01:10	36.8	36.8	36.8	78	30.6	3	6	248	0.00	30.003 
01:15	36.8	36.8	36.8	78	30.6	3	7	248	0.00	30.004 
01:20	36.8	36.8	36.8	78	30.6	3	11	248	0.00	30.005 
01:25	36.8	36.8	36.8	78	30.6	3	7	248	0.00	30.005 
01:30	36.6	36.6	36.6	78	30.4	3	7	248	0.00	30.006 
01:35	36.6	36.6	36.6	78	30.4	2	5	248	0.00	30.007 
01:40	36.6	36.6	36.6	78	30.4	2	7	270	0.00	30.007 
01:45	36.6	36.6	36.6	78	30.4	2	5	270	0.00	30.007 
01:50	36.5	36.5	36.5	79	30.6	2	5	270	0.00	30.009 
01:55	36.5	36.5	36.5	78	30.3	3	7	270	0.00	30.009 
02:00	36.5	36.5	36.5	78	30.3	3	7	270	0.00	30.012 
02:05	36.5	36.5	36.5	78	30.3	2	7	270	0.00	30.017 
02:10	36.5	36.5	36.5	78	30.3	3	9	248	0.00	30.019 
02:15	36.5	36.5	36.5	78	30.3	2	7	248	0.00	30.020 
02:20	36.5	36.5	36.5	78	30.3	2	9	248	0.00	30.020 
02:25	36.3	36.3	36.3	78	30.1	2	8	248	0.00	30.023 
02:30	36.2	36.2	36.2	78	30.0	3	11	248	0.00	30.027 
02:35	36.2	36.2	36.2	78	30.0	3	10	270	0.00	30.032 
02:40	36.0	36.0	36.0	78	29.8	3	7	270	0.00	30.035 
02:45	35.9	35.9	35.9	78	29.7	2	7	270	0.00	30.036 
02:50	35.8	35.8	35.8	79	29.9	3	7	248	0.00	30.037 
02:55	35.5	35.5	35.5	79	29.6	3	7	270	0.00	30.038 
03:00	35.3	35.3	35.3	80	29.8	3	7	270	0.00	30.040 
03:05	35.2	35.2	35.2	80	29.7	2	6	248	0.00	30.044 
03:10	34.9	34.9	34.9	81	29.7	2	8	270	0.00	30.046 
03:15	34.9	34.9	34.9	81	29.7	3	7	270	0.00	30.050 
03:20	34.7	34.7	34.7	82	29.8	3	6	248	0.00	30.052 
03:25	34.6	34.6	34.6	82	29.7	3	6	248	0.00	30.054 
03:30	34.6	34.6	34.6	83	30.0	3	7	248	0.00	30.054 
03:35	34.6	34.6	34.6	83	30.0	3	9	270	0.00	30.055 
03:40	34.6	34.6	34.6	82	29.7	3	7	270	0.00	30.056 
03:45	34.4	34.4	34.4	82	29.5	2	11	248	0.00	30.058 
03:50	34.3	34.3	34.3	83	29.7	2	5	248	0.00	30.057 
03:55	34.1	34.1	34.1	83	29.5	2	6	248	0.00	30.060 
04:00	34.0	34.0	34.0	83	29.4	2	6	248	0.00	30.061 
04:05	34.0	34.0	34.0	83	29.4	2	4	270	0.00	30.067 
04:10	33.8	33.8	33.8	83	29.2	2	4	248	0.00	30.069 
04:15	33.7	33.7	33.7	83	29.1	2	9	270	0.00	30.073 
04:20	33.7	33.7	33.7	83	29.1	2	5	248	0.00	30.073 
04:25	33.5	33.5	33.5	83	28.9	2	6	248	0.00	30.073 
04:30	33.5	33.5	33.5	83	28.9	1	4	248	0.00	30.075 
04:35	33.4	33.4	33.4	84	29.1	2	5	248	0.00	30.080 
04:40	33.4	33.4	33.4	84	29.1	2	6	248	0.00	30.081 
04:45	33.2	33.2	33.2	84	28.9	2	5	248	0.00	30.081 
04:50	33.1	33.1	33.1	84	28.8	1	4	248	0.00	30.080 
04:55	32.9	32.9	32.9	84	28.6	0	2	248	0.00	30.074 
05:00	32.9	32.9	32.9	84	28.6	1	3	248	0.00	30.075 
05:05	32.8	32.8	32.8	84	28.5	1	4	248	0.00	30.079 
05:10	32.8	32.8	32.8	84	28.5	2	5	270	0.00	30.084 
05:15	32.8	32.8	32.8	84	28.5	1	4	225	0.00	30.087 
05:20	32.7	32.7	32.7	84	28.4	1	5	248	0.00	30.089 
05:25	32.5	32.5	32.5	84	28.2	1	3	248	0.00	30.089 
05:30	32.5	32.5	32.5	85	28.5	2	7	248	0.00	30.092 
05:35	32.5	32.5	32.5	85	28.5	1	4	248	0.00	30.093 
05:40	32.4	32.4	32.4	85	28.4	1	5	248	0.00	30.099 
05:45	32.4	32.4	32.4	85	28.4	2	4	248	0.00	30.104 
05:50	32.2	32.2	32.2	85	28.2	2	6	248	0.00	30.109 
05:55	32.2	32.2	32.2	85	28.2	1	3	248	0.00	30.111 
06:00	32.1	32.1	32.1	85	28.1	1	3	248	0.00	30.115 
06:05	32.1	32.1	32.1	86	28.4	1	4	248	0.00	30.118 
06:10	31.9	31.9	31.9	86	28.2	1	2	270	0.00	30.119 
06:15	31.8	31.8	31.8	86	28.1	1	3	248	0.00	30.120 
06:20	31.8	31.8	31.8	86	28.1	2	5	248	0.00	30.127 
06:25	31.9	31.9	31.9	86	28.2	2	7	248	0.00	30.134 
06:30	32.1	32.1	32.1	86	28.4	2	6	248	0.00	30.136 
06:35	32.1	32.1	32.1	86	28.4	2	5	248	0.00	30.138 
06:40	32.2	32.2	32.2	85	28.2	2	5	248	0.00	30.141 
06:45	32.4	32.4	32.4	85	28.4	2	6	270	0.00	30.149 
06:50	32.5	32.5	32.5	85	28.5	3	6	248	0.00	30.146 
06:55	32.7	32.7	32.7	84	28.4	2	9	248	0.00	30.146 
07:00	32.8	32.8	32.8	84	28.5	2	7	270	0.00	30.148 
07:05	33.1	33.1	33.1	84	28.8	2	5	248	0.00	30.149 
07:10	33.2	33.2	33.2	83	28.6	2	5	248	0.00	30.152 
07:15	33.5	33.5	33.5	82	28.6	3	6	248	0.00	30.155 
07:20	33.8	33.8	33.8	82	28.9	2	5	248	0.00	30.158 
07:25	34.1	34.1	34.1	81	28.9	2	10	270	0.00	30.162 
07:30	34.4	34.4	34.4	81	29.2	2	4	270	0.00	30.164 
07:35	34.7	34.7	34.7	79	28.9	2	9	270	0.00	30.164 
07:40	34.9	34.9	34.9	79	29.1	3	6	248	0.00	30.163 
07:45	35.2	35.2	35.2	78	29.0	3	9	270	0.00	30.163 
07:50	35.5	35.5	35.5	78	29.3	3	8	270	0.00	30.163 
07:55	35.8	35.8	35.8	78	29.6	2	6	292	0.00	30.164 
08:00	36.2	36.2	36.2	76	29.4	2	5	248	0.00	30.164 
08:05	36.6	36.6	36.6	76	29.8	2	7	270	0.00	30.165 
08:10	36.9	36.9	36.9	74	29.4	2	4	248	0.00	30.163 
08:15	37.2	37.2	37.2	74	29.7	2	4	270	0.00	30.161 
08:20	37.5	37.5	37.5	74	30.0	2	4	270	0.00	30.161 
08:25	37.9	37.9	37.9	73	30.0	2	5	248	0.00	30.160 
08:30	38.0	38.0	38.0	72	29.8	3	5	270	0.00	30.160 
08:35	38.5	38.5	38.5	72	30.3	2	5	338	0.00	30.162 
08:40	38.8	38.8	38.8	70	29.9	2	8	270	0.00	30.162 
08:45	39.3	39.3	39.3	71	30.7	2	4	292	0.00	30.165 
08:50	39.8	39.8	39.8	68	30.1	2	4	270	0.00	30.165 
08:55	39.9	39.9	39.9	68	30.2	2	5	225	0.00	30.166 
09:00	40.1	40.1	40.1	68	30.4	3	5	270	0.00	30.166 
09:05	40.6	40.6	40.6	67	30.5	2	7	248	0.00	30.164 
09:10	40.8	40.8	40.8	65	30.0	3	6	248	0.00	30.166 
09:15	40.8	40.8	40.8	66	30.3	3	6	248	0.00	30.166 
09:20	41.1	41.1	41.1	65	30.2	3	7	248	0.00	30.169 
09:25	41.5	41.5	41.5	65	30.6	3	4	270	0.00	30.171 
09:30	41.8	41.8	41.8	64	30.5	3	7	248	0.00	30.173 
09:35	41.9	41.9	41.9	62	29.8	3	7	248	0.00	30.173 
09:40	42.5	42.5	42.5	65	31.6	2	4	248	0.00	30.174 
09:45	42.9	42.9	42.9	64	31.6	2	6	248	0.00	30.172 
09:50	43.2	43.2	43.2	64	31.9	2	6	248	0.00	30.172 
09:55	43.3	43.3	43.3	62	31.2	2	5	270	0.00	30.173 
10:00	43.5	43.5	43.5	60	30.5	3	7	270	0.00	30.173 
10:05	43.9	43.9	43.9	58	30.1	3	5	248	0.00	30.173 
10:10	43.9	43.9	43.9	58	30.1	3	11	248	0.00	30.172 
10:15	44.1	44.1	44.1	59	30.7	3	7	248	0.00	30.172 
10:20	44.5	44.5	44.5	59	31.1	2	9	270	0.00	30.172 
10:25	44.6	44.6	44.6	57	30.3	3	9	248	0.00	30.173 
10:30	44.9	44.9	44.9	59	31.5	2	6	248	0.00	30.172 
10:35	45.2	45.2	45.2	57	30.9	3	7	248	0.00	30.176 
10:40	45.2	45.2	45.2	58	31.3	3	7	270	0.00	30.175 
10:45	45.5	45.5	45.5	58	31.6	3	10	270	0.00	30.180 
10:50	46.1	46.1	46.1	57	31.7	2	4	292	0.00	30.182 
10:55	46.2	44.5	46.2	56	31.4	4	13	270	0.00	30.178 
11:00	46.0	44.2	46.0	54	30.3	4	7	248	0.00	30.177 
11:05	46.1	46.1	46.1	54	30.4	3	7	248	0.00	30.180 
11:10	46.2	44.5	46.2	54	30.5	4	9	248	0.00	30.179 
11:15	46.2	44.5	46.2	54	30.5	4	8	270	0.00	30.178 
11:20	46.7	46.7	46.7	54	30.9	3	12	270	0.00	30.177 
11:25	47.0	47.0	47.0	58	33.0	3	11	270	0.00	30.173 
11:30	47.3	47.3	47.3	54	31.5	3	10	248	0.00	30.173 
11:35	47.1	45.5	47.1	50	29.4	4	7	248	0.00	30.180 
11:40	47.1	47.1	47.1	52	30.4	3	8	270	0.00	30.173 
11:45	47.7	47.7	47.7	46	27.9	3	9	270	0.00	30.172 
11:50	47.9	47.9	47.9	49	29.7	3	7	270	0.00	30.170 
11:55	47.6	46.1	47.6	46	27.9	4	11	270	0.00	30.169 
12:00	47.6	47.6	47.6	50	29.9	3	7	270	0.00	30.169 
12:05	48.5	48.5	48.5	45	28.1	3	10	270	0.00	30.168 
12:10	48.9	48.9	48.9	41	26.2	3	12	270	0.00	30.164 
12:15	49.4	49.4	49.4	41	26.7	2	5	338	0.00	30.165 
12:20	49.2	49.2	49.2	39	25.3	2	6	338	0.00	30.159 
12:25	49.5	49.5	49.5	42	27.4	3	5	270	0.00	30.158 
12:30	49.5	48.3	49.5	39	25.6	4	10	270	0.00	30.154 
12:35	50.1	50.1	50.1	40	26.7	2	7	315	0.00	30.157 
12:40	50.1	50.1	50.1	40	26.7	2	6	270	0.00	30.155 
12:45	49.8	49.8	49.8	40	26.5	2	9	315	0.00	30.150 
12:50	49.8	49.8	49.8	42	27.6	3	8	292	0.00	30.149 
12:55	49.6	48.4	49.6	39	25.7	4	9	270	0.00	30.146 
13:00	49.8	49.8	49.8	42	27.6	2	9	338	0.00	30.141 
13:05	50.1	50.1	50.1	41	27.3	2	5	270	0.00	30.136 
13:10	50.7	50.7	50.7	42	28.5	3	6	270	0.00	30.134 
13:15	51.3	51.3	51.3	39	27.2	2	7	0	0.00	30.130 
13:20	51.4	51.4	51.4	38	26.7	3	7	270	0.00	30.130 
13:25	51.3	51.3	51.3	37	25.9	2	6	270	0.00	30.126 
13:30	51.4	51.4	51.4	38	26.7	2	8	270	0.00	30.126 
13:35	51.0	51.0	51.0	40	27.5	2	4	315	0.00	30.125 
13:40	50.8	50.8	50.8	41	28.0	2	6	338	0.00	30.128 
13:45	51.0	51.0	51.0	39	26.9	3	6	270	0.00	30.130 
13:50	50.7	50.7	50.7	37	25.4	3	10	292	0.00	30.133 
13:55	50.8	50.8	50.8	39	26.7	3	9	270	0.00	30.133 
14:00	51.6	51.6	51.6	39	27.5	2	6	270	0.00	30.133 
14:05	52.0	52.0	52.0	42	29.6	2	6	270	0.00	30.135 
14:10	51.7	51.7	51.7	38	26.9	4	9	270	0.00	30.135 
14:15	51.4	51.4	51.4	36	25.4	4	7	270	0.00	30.134 
14:20	51.4	51.4	51.4	39	27.3	1	5	270	0.00	30.132 
14:25	51.1	51.1	51.1	38	26.4	3	11	338	0.00	30.133 
14:30	51.3	51.3	51.3	41	28.4	2	4	292	0.00	30.128 
14:35	51.6	51.6	51.6	39	27.5	3	6	270	0.00	30.129 
14:40	51.4	51.4	51.4	37	26.0	2	6	248	0.00	30.123 
14:45	51.4	51.4	51.4	43	29.7	3	9	338	0.00	30.123 
14:50	51.1	51.1	51.1	37	25.7	3	5	270	0.00	30.125 
14:55	51.6	51.6	51.6	38	26.8	3	7	270	0.00	30.121 
15:00	51.9	51.9	51.9	39	27.7	2	5	248	0.00	30.118 
15:05	51.9	51.9	51.9	37	26.5	3	6	270	0.00	30.119 
15:10	52.0	52.0	52.0	37	26.5	2	6	248	0.00	30.117 
15:15	52.0	52.0	52.0	39	27.8	2	5	270	0.00	30.118 
15:20	52.2	52.2	52.2	40	28.6	2	4	338	0.00	30.117 
15:25	52.2	52.2	52.2	39	28.0	2	6	248	0.00	30.117 
15:30	52.2	52.2	52.2	38	27.4	3	5	270	0.00	30.114 
15:35	52.0	52.0	52.0	37	26.5	3	10	248	0.00	30.110 
15:40	52.2	52.2	52.2	39	28.0	2	4	248	0.00	30.108 
15:45	52.3	52.3	52.3	35	25.5	3	9	248	0.00	30.106 
15:50	52.3	52.3	52.3	37	26.8	1	5	0	0.00	30.105 
15:55	52.3	52.3	52.3	38	27.5	2	6	248	0.00	30.104 
16:00	52.3	52.3	52.3	34	24.8	1	5	248	0.00	30.104 
16:05	52.0	52.0	52.0	35	25.2	2	7	292	0.00	30.106 
16:10	51.6	51.6	51.6	33	23.4	2	6	338	0.00	30.106 
16:15	51.3	51.3	51.3	35	24.6	2	7	22	0.00	30.104 
16:20	51.6	51.6	51.6	33	23.4	3	6	270	0.00	30.106 
16:25	51.6	51.6	51.6	33	23.4	1	5	248	0.00	30.107 
16:30	51.4	51.4	51.4	33	23.3	1	4	315	0.00	30.106 
16:35	51.3	51.3	51.3	31	21.7	2	4	315	0.00	30.107 
16:40	51.1	51.1	51.1	32	22.3	2	5	315	0.00	30.107 
16:45	51.0	51.0	51.0	31	21.4	2	9	292	0.00	30.106 
16:50	51.1	51.1	51.1	33	23.0	1	4	270	0.00	30.107 
16:55	51.1	51.1	51.1	32	22.3	1	4	270	0.00	30.106 
17:00	51.0	51.0	51.0	30	20.7	1	4	338	0.00	30.109 
17:05	50.8	50.8	50.8	32	22.0	2	4	338	0.00	30.110 
17:10	50.7	50.7	50.7	33	22.7	1	4	292	0.00	30.110 
17:15	50.7	50.7	50.7	32	21.9	2	5	292	0.00	30.111 
17:20	50.7	50.7	50.7	32	21.9	1	5	248	0.00	30.114 
17:25	50.5	50.5	50.5	31	21.0	1	3	270	0.00	30.117 
17:30	50.4	50.4	50.4	31	20.9	1	3	270	0.00	30.113 
17:35	50.4	50.4	50.4	34	23.1	1	5	225	0.00	30.110 
17:40	50.1	50.1	50.1	32	21.4	2	5	248	0.00	30.111 
17:45	49.9	49.9	49.9	32	21.2	1	5	270	0.00	30.113 
17:50	49.8	49.8	49.8	33	21.9	1	4	248	0.00	30.115 
17:55	49.6	49.6	49.6	33	21.7	1	4	270	0.00	30.116 
18:00	49.5	49.5	49.5	33	21.6	2	4	270	0.00	30.119 
18:05	49.4	49.4	49.4	32	20.8	2	4	270	0.00	30.123 
18:10	49.2	49.2	49.2	34	22.0	1	3	248	0.00	30.122 
18:15	49.2	49.2	49.2	33	21.3	1	3	270	0.00	30.124 
18:20	49.1	49.1	49.1	34	22.0	1	4	270	0.00	30.125 
18:25	48.9	48.9	48.9	32	20.4	1	4	270	0.00	30.126 
18:30	48.8	48.8	48.8	33	21.0	1	3	270	0.00	30.124 
18:35	48.6	48.6	48.6	34	21.5	1	3	248	0.00	30.124 
18:40	48.3	48.3	48.3	35	21.9	1	2	338	0.00	30.124 
18:45	48.2	48.2	48.2	34	21.2	1	3	270	0.00	30.125 
18:50	48.0	48.0	48.0	35	21.7	1	2	270	0.00	30.126 
18:55	47.9	47.9	47.9	34	20.9	1	3	270	0.00	30.127 
19:00	47.6	47.6	47.6	35	21.3	1	3	248	0.00	30.125 
19:05	47.4	47.4	47.4	36	21.8	0	1	315	0.00	30.124 
19:10	47.3	47.3	47.3	35	21.0	0	2	315	0.00	30.124 
19:15	47.0	47.0	47.0	36	21.4	0	1	315	0.00	30.125 
19:20	46.7	46.7	46.7	37	21.8	0	1	315	0.00	30.129 
19:25	46.4	46.4	46.4	37	21.6	0	1	315	0.00	30.130 
19:30	46.2	46.2	46.2	38	22.0	0	1	315	0.00	30.127 
19:35	46.1	46.1	46.1	38	21.9	0	1	315	0.00	30.131 
19:40	46.0	46.0	46.0	39	22.4	0	2	315	0.00	30.129 
19:45	45.7	45.7	45.7	40	22.8	0	1	315	0.00	30.128 
19:50	45.2	45.2	45.2	42	23.5	0	0	---	0.00	30.134 
19:55	44.9	44.9	44.9	42	23.2	0	1	315	0.00	30.131 
20:00	44.6	44.6	44.6	41	22.4	0	1	315	0.00	30.130 
20:05	44.5	44.5	44.5	41	22.3	0	1	315	0.00	30.131 
20:10	44.5	44.5	44.5	41	22.3	0	1	315	0.00	30.136 
20:15	44.2	44.2	44.2	42	22.6	0	2	315	0.00	30.133 
20:20	43.9	43.9	43.9	42	22.3	0	2	315	0.00	30.137 
20:25	43.6	43.6	43.6	43	22.6	0	1	315	0.00	30.137 
20:30	43.3	43.3	43.3	43	22.3	0	0	---	0.00	30.137 
20:35	43.1	43.1	43.1	44	22.7	0	1	315	0.00	30.137 
20:40	42.6	42.6	42.6	44	22.2	0	0	---	0.00	30.139 
20:45	42.3	42.3	42.3	44	22.0	0	0	---	0.00	30.137 
20:50	41.9	41.9	41.9	45	22.1	0	0	---	0.00	30.136 
20:55	41.6	41.6	41.6	46	22.4	0	0	---	0.00	30.137 
21:00	41.3	41.3	41.3	46	22.1	0	0	---	0.00	30.137 
21:05	41.1	41.1	41.1	46	21.9	0	0	---	0.00	30.132 
21:10	40.8	40.8	40.8	46	21.6	0	0	---	0.00	30.133 
21:15	40.5	40.5	40.5	47	21.9	0	0	---	0.00	30.129 
21:20	40.2	40.2	40.2	47	21.6	0	0	---	0.00	30.126 
21:25	40.1	40.1	40.1	48	22.0	0	0	---	0.00	30.125 
21:30	39.9	39.9	39.9	48	21.8	0	0	---	0.00	30.123 
21:35	39.9	39.9	39.9	49	22.3	0	0	---	0.00	30.122 
21:40	39.8	39.8	39.8	49	22.2	0	1	315	0.00	30.120 
21:45	39.8	39.8	39.8	50	22.7	0	1	315	0.00	30.119 
21:50	39.8	39.8	39.8	50	22.7	0	1	315	0.00	30.121 
21:55	39.6	39.6	39.6	50	22.5	0	0	---	0.00	30.121 
22:00	39.5	39.5	39.5	51	22.9	0	0	---	0.00	30.116 
22:05	39.3	39.3	39.3	52	23.2	0	1	315	0.00	30.108 
22:10	39.2	39.2	39.2	52	23.1	0	1	315	0.00	30.102 
22:15	39.1	39.1	39.1	52	23.0	0	0	---	0.00	30.101 
22:20	38.9	38.9	38.9	52	22.8	0	0	---	0.00	30.103 
22:25	38.6	38.6	38.6	52	22.5	0	0	---	0.00	30.101 
22:30	38.3	38.3	38.3	53	22.7	0	0	---	0.00	30.095 
22:35	38.2	38.2	38.2	54	23.0	0	0	---	0.00	30.101 
22:40	37.9	37.9	37.9	53	22.3	0	0	---	0.00	30.101 
22:45	37.8	37.8	37.8	53	22.2	0	0	---	0.00	30.104 
22:50	37.6	37.6	37.6	53	22.0	0	0	---	0.00	30.106 
22:55	37.5	37.5	37.5	53	21.9	0	0	---	0.00	30.109 
23:00	37.3	37.3	37.3	54	22.2	0	0	---	0.00	30.112 
23:05	37.2	37.2	37.2	54	22.1	0	0	---	0.00	30.108 
23:10	37.0	37.0	37.0	54	21.9	0	0	---	0.00	30.110 
23:15	36.9	36.9	36.9	55	22.3	0	0	---	0.00	30.110 
23:20	36.8	36.8	36.8	55	22.2	0	0	---	0.00	30.109 
23:25	36.6	36.6	36.6	56	22.4	0	0	---	0.00	30.107 
23:30	36.5	36.5	36.5	56	22.3	0	0	---	0.00	30.107 
23:35	36.5	36.5	36.5	57	22.7	0	0	---	0.00	30.108 
23:40	36.3	36.3	36.3	58	23.0	0	0	---	0.00	30.110 
23:45	36.2	36.2	36.2	59	23.3	0	0	---	0.00	30.110 
23:50	36.2	36.2	36.2	59	23.3	0	0	---	0.00	30.108 
23:55	36.0	36.0	36.0	59	23.1	0	0	---	0.00	30.106 

CoCoRaHS
IN-AL-39
A2 Web Hosting
Creative Commons License
GoDaddy
Look for:

loaded 2017-10-16 20:31:13 • last modified 2010-11-18 10:43:29
Privacy PolicyDisclaimer
• wx.awcolley.com is powered by PmWiki v.2002016 •
• all content (unless otherwise noted) © 2017 A W Colley